createdAt,value
2022-10-24T00:01:05.221Z,52
2022-10-24T00:16:05.709Z,54
2022-10-24T00:31:04.969Z,60
2022-10-24T00:46:05.598Z,58
2022-10-24T01:01:06.307Z,60
2022-10-24T01:16:05.676Z,56
2022-10-24T01:31:05.809Z,52
2022-10-24T01:46:05.055Z,57
2022-10-24T02:01:05.561Z,66
2022-10-24T02:16:05.612Z,56
2022-10-24T02:31:05.656Z,50
2022-10-24T02:46:05.739Z,51
2022-10-24T03:01:05.244Z,56
2022-10-24T03:16:10.382Z,46
2022-10-24T03:31:05.390Z,45
2022-10-24T03:46:05.645Z,41
2022-10-24T04:01:06.174Z,41
2022-10-24T04:16:05.153Z,36
2022-10-24T04:31:05.705Z,35
2022-10-24T04:46:05.506Z,27
2022-10-24T05:01:05.592Z,22
2022-10-24T05:16:05.836Z,19
2022-10-24T05:31:05.488Z,22
2022-10-24T05:46:05.339Z,17
2022-10-24T06:01:05.965Z,18
2022-10-24T06:16:05.583Z,15
2022-10-24T06:31:05.687Z,21
2022-10-24T06:46:05.755Z,20
2022-10-24T07:01:06.147Z,22
2022-10-24T07:16:04.994Z,24
2022-10-24T07:31:05.279Z,19
2022-10-24T07:46:05.135Z,19
2022-10-24T08:01:05.070Z,19
2022-10-24T08:16:05.664Z,21
2022-10-24T08:31:05.321Z,18
2022-10-24T08:46:05.340Z,21
2022-10-24T09:01:06.016Z,21
2022-10-24T09:16:06.180Z,20
2022-10-24T09:31:05.199Z,20
2022-10-24T09:46:05.112Z,20
2022-10-24T10:01:05.578Z,18
2022-10-24T10:16:05.437Z,19
2022-10-24T10:31:05.624Z,14
2022-10-24T10:46:05.887Z,15
2022-10-24T11:01:05.289Z,12
2022-10-24T11:16:05.216Z,15
2022-10-24T11:31:05.125Z,11
2022-10-24T11:46:05.759Z,13
2022-10-24T12:01:05.471Z,9
2022-10-24T12:16:05.663Z,13
2022-10-24T12:31:05.473Z,13
2022-10-24T12:46:13.218Z,11
2022-10-24T13:01:05.751Z,12
2022-10-24T13:16:05.702Z,14
2022-10-24T13:31:05.387Z,14
2022-10-24T13:46:12.117Z,11
2022-10-24T14:01:05.867Z,11
2022-10-24T14:16:05.476Z,13
2022-10-24T14:31:06.790Z,14
2022-10-24T14:46:34.992Z,14
2022-10-24T15:01:05.529Z,21
2022-10-24T15:16:05.603Z,21
2022-10-24T15:31:05.904Z,22
2022-10-24T15:46:05.125Z,19
2022-10-24T16:01:06.059Z,23
2022-10-24T16:16:04.835Z,28
2022-10-24T16:31:05.903Z,26
2022-10-24T16:46:05.814Z,22
2022-10-24T17:01:05.354Z,25
2022-10-24T17:16:05.007Z,29
2022-10-24T17:31:05.576Z,29
2022-10-24T17:46:05.083Z,40
2022-10-24T18:01:05.817Z,36
2022-10-24T18:16:05.243Z,34
2022-10-24T18:31:05.303Z,32
2022-10-24T18:46:05.719Z,31
2022-10-24T19:01:05.674Z,29
2022-10-24T19:16:05.674Z,31
2022-10-24T19:31:05.186Z,32
2022-10-24T19:46:20.562Z,34
2022-10-24T20:01:05.539Z,37
2022-10-24T20:16:05.701Z,43
2022-10-24T20:31:05.498Z,39
2022-10-24T20:46:05.774Z,37
2022-10-24T21:01:05.655Z,41
2022-10-24T21:16:04.931Z,43
2022-10-24T21:31:05.103Z,54
2022-10-24T21:46:05.325Z,84
2022-10-24T22:01:05.492Z,50
2022-10-24T22:16:05.538Z,48
2022-10-24T22:31:05.806Z,55
2022-10-24T22:46:05.715Z,58
2022-10-24T23:01:06.019Z,64
2022-10-24T23:16:05.418Z,71
2022-10-24T23:31:05.585Z,74
2022-10-24T23:46:05.523Z,65
